createdAt,value
2019-03-17T00:01:39.274Z,11.70
2019-03-17T00:04:09.735Z,11.70
2019-03-17T00:06:40.027Z,11.50
2019-03-17T00:09:10.312Z,11.40
2019-03-17T00:11:40.524Z,11.40
2019-03-17T00:14:10.780Z,11.30
2019-03-17T00:16:40.994Z,11.40
2019-03-17T00:19:11.427Z,11.40
2019-03-17T00:21:41.742Z,11.30
2019-03-17T00:24:12.017Z,11.40
2019-03-17T00:26:42.239Z,11.40
2019-03-17T00:29:12.558Z,11.40
2019-03-17T00:31:42.796Z,11.40
2019-03-17T00:34:13.078Z,11.40
2019-03-17T00:36:43.307Z,11.40
2019-03-17T00:39:14.609Z,11.40
2019-03-17T00:41:44.838Z,11.20
2019-03-17T00:44:15.078Z,11.20
2019-03-17T00:46:45.345Z,11.40
2019-03-17T00:49:15.632Z,11.40
2019-03-17T00:51:45.856Z,11.30
2019-03-17T00:54:16.110Z,11.20
2019-03-17T00:56:46.403Z,11.20
2019-03-17T00:59:16.652Z,11.30
2019-03-17T01:01:46.927Z,11.40
2019-03-17T01:04:17.273Z,11.30
2019-03-17T01:06:47.544Z,11.30
2019-03-17T01:09:17.790Z,11.20
2019-03-17T01:11:48.114Z,11.30
2019-03-17T01:14:18.439Z,11.20
2019-03-17T01:16:48.662Z,11.20
2019-03-17T01:19:19.140Z,11.20
2019-03-17T01:21:49.395Z,11.10
2019-03-17T01:24:19.688Z,11.10
2019-03-17T01:26:49.902Z,11.10
2019-03-17T01:29:20.282Z,11.00
2019-03-17T01:31:50.544Z,10.80
2019-03-17T01:34:20.831Z,10.90
2019-03-17T01:36:51.071Z,11.10
2019-03-17T01:39:21.320Z,10.80
2019-03-17T01:41:51.662Z,10.80
2019-03-17T01:44:21.915Z,10.90
2019-03-17T01:46:52.219Z,10.80
2019-03-17T01:49:22.439Z,10.30
2019-03-17T01:51:52.691Z,10.60
2019-03-17T01:54:22.947Z,10.40
2019-03-17T01:56:53.196Z,10.50
2019-03-17T01:59:23.453Z,10.70
2019-03-17T02:01:53.959Z,10.90
2019-03-17T02:04:24.210Z,10.90
2019-03-17T02:06:54.416Z,10.80
2019-03-17T02:09:24.758Z,10.60
2019-03-17T02:11:54.991Z,10.60
2019-03-17T02:14:25.218Z,10.30
2019-03-17T02:16:55.434Z,10.50
2019-03-17T02:19:25.879Z,10.60
2019-03-17T02:21:56.126Z,10.30
2019-03-17T02:24:26.365Z,10.50
2019-03-17T02:26:56.585Z,10.80
2019-03-17T02:29:26.835Z,10.70
2019-03-17T02:31:57.060Z,10.70
2019-03-17T02:34:27.386Z,10.60
2019-03-17T02:36:57.679Z,10.70
2019-03-17T02:39:28.161Z,10.60
2019-03-17T02:41:58.502Z,10.60
2019-03-17T02:44:28.750Z,10.70
2019-03-17T02:46:58.977Z,10.70
2019-03-17T02:49:29.218Z,10.80
2019-03-17T02:51:59.474Z,10.90
2019-03-17T02:54:29.708Z,10.90
2019-03-17T02:56:59.926Z,10.80
2019-03-17T02:59:30.163Z,10.90
2019-03-17T03:02:00.388Z,10.80
2019-03-17T03:04:30.624Z,10.90
2019-03-17T03:07:00.864Z,10.90
2019-03-17T03:09:31.155Z,10.70
2019-03-17T03:12:01.363Z,10.60
2019-03-17T03:14:31.619Z,10.70
2019-03-17T03:17:01.927Z,10.80
2019-03-17T03:19:32.381Z,10.80
2019-03-17T03:22:02.718Z,10.80
2019-03-17T03:24:33.023Z,10.80
2019-03-17T03:27:03.272Z,10.90
2019-03-17T03:29:33.543Z,10.90
2019-03-17T03:32:03.749Z,10.80
2019-03-17T03:34:34.001Z,10.90
2019-03-17T03:37:04.221Z,10.90
2019-03-17T03:39:35.449Z,11.00
2019-03-17T03:42:05.678Z,11.00
2019-03-17T03:44:35.908Z,10.90
2019-03-17T03:47:06.163Z,10.90
2019-03-17T03:49:36.453Z,10.90
2019-03-17T03:52:06.742Z,10.80
2019-03-17T03:54:37.067Z,10.70
2019-03-17T03:57:07.353Z,10.70
2019-03-17T03:59:37.604Z,10.90
2019-03-17T04:02:07.836Z,10.80
2019-03-17T04:04:38.120Z,10.70
2019-03-17T04:07:08.335Z,10.70
2019-03-17T04:09:38.582Z,10.80
2019-03-17T04:12:08.890Z,10.90
2019-03-17T04:14:39.147Z,10.80
2019-03-17T04:17:09.411Z,10.60
2019-03-17T04:19:39.676Z,10.70
2019-03-17T04:22:09.894Z,10.80
2019-03-17T04:24:40.165Z,10.80
2019-03-17T04:27:10.387Z,10.70
2019-03-17T04:29:40.642Z,10.70
2019-03-17T04:32:10.856Z,10.80
2019-03-17T04:34:41.129Z,10.50
2019-03-17T04:37:11.366Z,10.50
2019-03-17T04:39:41.619Z,10.60
2019-03-17T04:42:11.842Z,10.60
2019-03-17T04:44:42.087Z,10.70
2019-03-17T04:47:12.302Z,10.60
2019-03-17T04:49:42.535Z,10.60
2019-03-17T04:52:12.816Z,10.60
2019-03-17T04:54:43.081Z,10.50
2019-03-17T04:57:13.331Z,10.60
2019-03-17T04:59:43.560Z,10.60
2019-03-17T05:02:13.909Z,10.60
2019-03-17T05:04:44.162Z,10.70
2019-03-17T05:07:14.414Z,10.70
2019-03-17T05:09:44.667Z,10.80
2019-03-17T05:12:14.883Z,10.90
2019-03-17T05:14:45.124Z,11.00
2019-03-17T05:17:15.352Z,11.00
2019-03-17T05:19:46.149Z,10.90
2019-03-17T05:22:16.410Z,10.90
2019-03-17T05:24:46.631Z,10.80
2019-03-17T05:27:16.938Z,10.90
2019-03-17T05:29:47.182Z,10.80
2019-03-17T05:32:17.471Z,10.90
2019-03-17T05:34:47.709Z,10.80
2019-03-17T05:37:17.964Z,10.70
2019-03-17T05:39:48.283Z,10.50
2019-03-17T05:42:18.546Z,10.60
2019-03-17T05:44:48.776Z,10.60
2019-03-17T05:47:19.074Z,10.70
2019-03-17T05:49:49.299Z,10.70
2019-03-17T05:52:19.715Z,10.80
2019-03-17T05:54:49.914Z,10.80
2019-03-17T05:57:20.154Z,10.80
2019-03-17T05:59:50.370Z,10.80
2019-03-17T06:02:20.622Z,10.70
2019-03-17T06:04:50.838Z,10.60
2019-03-17T06:07:21.066Z,10.60
2019-03-17T06:09:51.354Z,10.60
2019-03-17T06:12:21.629Z,10.60
2019-03-17T06:14:51.951Z,10.60
2019-03-17T06:17:22.190Z,10.50
2019-03-17T06:19:52.410Z,10.60
2019-03-17T06:22:22.952Z,10.50
2019-03-17T06:24:53.163Z,10.50
2019-03-17T06:27:23.391Z,10.50
2019-03-17T06:29:53.606Z,10.50
2019-03-17T06:32:23.850Z,10.60
2019-03-17T06:34:54.064Z,10.60
2019-03-17T06:37:31.036Z,10.60
2019-03-17T06:39:56.209Z,10.70
2019-03-17T06:42:26.449Z,10.80
2019-03-17T06:44:56.676Z,10.90
2019-03-17T06:47:26.916Z,11.00
2019-03-17T06:49:57.126Z,11.10
2019-03-17T06:52:27.412Z,11.30
2019-03-17T06:54:57.631Z,11.40
2019-03-17T06:57:27.960Z,11.40
2019-03-17T06:59:58.248Z,11.50
2019-03-17T07:02:28.476Z,11.50
2019-03-17T07:04:58.688Z,11.60
2019-03-17T07:07:28.928Z,11.70
2019-03-17T07:09:59.158Z,11.90
2019-03-17T07:12:29.467Z,11.90
2019-03-17T07:14:59.676Z,12.00
2019-03-17T07:17:29.922Z,12.00
2019-03-17T07:20:00.443Z,12.00
2019-03-17T07:22:30.705Z,12.00
2019-03-17T07:25:00.926Z,12.00
2019-03-17T07:27:31.142Z,12.10
2019-03-17T07:30:01.362Z,12.00
2019-03-17T07:32:31.590Z,12.00
2019-03-17T07:35:01.822Z,12.10
2019-03-17T07:37:32.054Z,12.00
2019-03-17T07:40:02.313Z,12.10
2019-03-17T07:42:32.776Z,12.20
2019-03-17T07:45:03.054Z,12.20
2019-03-17T07:47:35.593Z,12.30
2019-03-17T07:50:06.691Z,12.30
2019-03-17T07:52:37.048Z,12.40
2019-03-17T07:55:08.054Z,12.40
2019-03-17T07:57:38.312Z,12.50
2019-03-17T08:00:09.519Z,12.40
2019-03-17T08:02:39.745Z,12.60
2019-03-17T08:05:09.990Z,12.90
2019-03-17T08:07:40.236Z,12.80
2019-03-17T08:10:11.130Z,12.60
2019-03-17T08:12:41.434Z,12.60
2019-03-17T08:15:12.009Z,12.60
2019-03-17T08:17:42.247Z,12.50
2019-03-17T08:20:12.589Z,12.40
2019-03-17T08:22:42.845Z,12.30
2019-03-17T08:25:13.100Z,12.30
2019-03-17T08:27:43.344Z,12.30
2019-03-17T08:30:13.590Z,12.30
2019-03-17T08:32:43.958Z,12.30
2019-03-17T08:35:14.922Z,12.30
2019-03-17T08:37:45.156Z,12.30
2019-03-17T08:40:16.129Z,12.40
2019-03-17T08:42:46.850Z,12.40
2019-03-17T08:45:17.138Z,12.40
2019-03-17T08:47:57.205Z,12.50
2019-03-17T08:50:19.614Z,12.60
2019-03-17T08:52:50.017Z,12.40
2019-03-17T08:55:20.370Z,12.50
2019-03-17T08:57:50.762Z,12.50
2019-03-17T09:00:21.101Z,12.60
2019-03-17T09:02:51.449Z,12.60
2019-03-17T09:05:21.728Z,12.70
2019-03-17T09:07:52.558Z,12.70
2019-03-17T09:10:22.902Z,12.70
2019-03-17T09:12:53.618Z,12.70
2019-03-17T09:15:23.973Z,12.80
2019-03-17T09:17:54.352Z,12.80
2019-03-17T09:20:25.065Z,13.00
2019-03-17T09:22:55.465Z,12.90
2019-03-17T09:25:25.734Z,13.00
2019-03-17T09:27:56.192Z,12.90
2019-03-17T09:30:26.506Z,13.00
2019-03-17T09:32:56.794Z,12.90
2019-03-17T09:35:27.280Z,12.90
2019-03-17T09:37:58.172Z,12.80
2019-03-17T09:40:28.811Z,12.70
2019-03-17T09:42:59.267Z,12.80
2019-03-17T09:45:29.842Z,12.80
2019-03-17T09:48:00.334Z,12.80
2019-03-17T09:50:30.957Z,12.70
2019-03-17T09:53:01.428Z,12.80
2019-03-17T09:55:31.678Z,12.70
2019-03-17T09:58:01.946Z,12.70
2019-03-17T10:00:32.175Z,12.70
2019-03-17T10:03:02.478Z,12.70
2019-03-17T10:05:32.770Z,12.80
2019-03-17T10:08:03.002Z,12.80
2019-03-17T10:10:33.333Z,12.80
2019-03-17T10:13:04.179Z,12.80
2019-03-17T10:15:34.529Z,12.70
2019-03-17T10:18:04.878Z,12.70
2019-03-17T10:20:35.222Z,12.70
2019-03-17T10:23:05.439Z,12.70
2019-03-17T10:25:35.674Z,12.80
2019-03-17T10:28:05.887Z,12.70
2019-03-17T10:30:36.142Z,12.70
2019-03-17T10:33:06.358Z,12.60
2019-03-17T10:35:36.643Z,12.60
2019-03-17T10:38:06.866Z,12.70
2019-03-17T10:40:37.146Z,12.80
2019-03-17T10:43:07.662Z,13.00
2019-03-17T10:45:38.167Z,13.00
2019-03-17T10:48:10.050Z,12.90
2019-03-17T10:50:49.493Z,13.00
2019-03-17T10:53:12.551Z,13.10
2019-03-17T10:55:43.839Z,13.00
2019-03-17T10:58:15.186Z,13.10
2019-03-17T11:00:45.490Z,13.20
2019-03-17T11:03:15.702Z,13.30
2019-03-17T11:05:45.958Z,13.10
2019-03-17T11:08:16.160Z,13.20
2019-03-17T11:10:46.399Z,13.00
2019-03-17T11:13:16.620Z,13.10
2019-03-17T11:23:15.454Z,12.90
2019-03-17T11:38:15.033Z,13.00
2019-03-17T11:40:45.352Z,12.50
2019-03-17T11:43:15.567Z,12.50
2019-03-17T11:45:45.840Z,12.50
2019-03-17T12:13:12.355Z,12.30
2019-03-17T12:15:42.852Z,11.10
2019-03-17T12:18:13.098Z,10.50
2019-03-17T12:20:43.371Z,10.10
2019-03-17T12:23:14.093Z,10.10
2019-03-17T12:25:44.390Z,10.10
2019-03-17T12:28:14.899Z,10.10
2019-03-17T12:30:45.177Z,10.00
2019-03-17T12:33:15.668Z,9.80
2019-03-17T12:35:45.979Z,9.80
2019-03-17T12:38:16.192Z,9.70
2019-03-17T12:40:46.509Z,10.00
2019-03-17T12:43:16.763Z,10.20
2019-03-17T12:45:48.435Z,9.90
2019-03-17T12:48:18.690Z,9.90
2019-03-17T13:05:46.566Z,9.70
2019-03-17T13:08:16.882Z,9.80
2019-03-17T13:10:47.154Z,9.60
2019-03-17T13:13:17.924Z,9.80
2019-03-17T13:15:48.291Z,9.70
2019-03-17T13:18:18.522Z,9.80
2019-03-17T13:20:51.202Z,9.60
2019-03-17T13:23:22.083Z,9.60
2019-03-17T13:25:52.408Z,9.80
2019-03-17T13:28:22.694Z,9.60
2019-03-17T13:30:53.146Z,9.30
2019-03-17T13:33:23.473Z,9.20
2019-03-17T13:35:53.714Z,9.20
2019-03-17T13:38:23.983Z,9.10
2019-03-17T13:40:54.287Z,9.20
2019-03-17T13:43:24.972Z,9.40
2019-03-17T13:45:55.300Z,9.30
2019-03-17T13:48:25.601Z,9.20
2019-03-17T13:50:56.050Z,9.10
2019-03-17T13:53:26.305Z,9.40
2019-03-17T13:55:56.594Z,9.60
2019-03-17T13:58:26.855Z,9.50
2019-03-17T14:00:57.242Z,9.40
2019-03-17T14:03:27.527Z,9.50
2019-03-17T14:05:57.898Z,9.50
2019-03-17T14:08:28.141Z,9.50
2019-03-17T14:10:58.448Z,9.40
2019-03-17T14:13:28.808Z,9.30
2019-03-17T14:15:59.007Z,9.10
2019-03-17T14:18:29.266Z,9.10
2019-03-17T14:20:59.526Z,9.10
2019-03-17T14:23:30.108Z,9.20
2019-03-17T14:26:00.346Z,9.40
2019-03-17T14:28:30.608Z,9.20
2019-03-17T14:31:00.814Z,9.20
2019-03-17T14:33:31.423Z,9.50
2019-03-17T14:36:01.690Z,9.70
2019-03-17T14:38:31.938Z,9.70
2019-03-17T14:41:02.529Z,9.40
2019-03-17T14:43:33.434Z,9.50
2019-03-17T14:46:03.720Z,9.30
2019-03-17T14:48:34.213Z,9.30
2019-03-17T14:51:04.450Z,9.60
2019-03-17T14:53:34.723Z,9.80
2019-03-17T14:56:04.924Z,9.70
2019-03-17T14:58:35.167Z,9.60
2019-03-17T15:01:05.712Z,9.60
2019-03-17T15:03:36.178Z,9.30
2019-03-17T15:06:06.442Z,9.40
2019-03-17T15:08:36.710Z,9.40
2019-03-17T15:11:06.978Z,9.30
2019-03-17T15:13:37.795Z,9.30
2019-03-17T15:16:08.052Z,9.20
2019-03-17T15:18:38.300Z,9.40
2019-03-17T15:21:08.502Z,9.30
2019-03-17T15:23:39.707Z,9.30
2019-03-17T15:26:10.046Z,9.20
2019-03-17T15:28:40.294Z,9.30
2019-03-17T15:31:12.357Z,9.40
2019-03-17T15:33:42.490Z,9.50
2019-03-17T15:36:12.830Z,9.50
2019-03-17T15:38:43.170Z,9.60
2019-03-17T15:41:18.449Z,9.60
2019-03-17T15:43:45.429Z,9.50
2019-03-17T15:46:15.640Z,9.50
2019-03-17T15:48:45.966Z,9.50
2019-03-17T15:51:20.588Z,9.60
2019-03-17T15:53:48.174Z,9.70
2019-03-17T17:08:51.062Z,9.40
2019-03-17T17:11:21.333Z,8.10
2019-03-17T17:13:51.670Z,8.20
2019-03-17T17:16:22.341Z,8.20
2019-03-17T17:18:52.818Z,8.10
2019-03-17T17:21:23.049Z,8.00
2019-03-17T17:23:53.376Z,8.00
2019-03-17T17:26:36.349Z,8.10
2019-03-17T17:28:57.060Z,8.20
2019-03-17T17:31:29.641Z,8.20
2019-03-17T17:33:59.899Z,8.00
2019-03-17T17:36:31.623Z,8.00
2019-03-17T17:39:01.881Z,8.10
2019-03-17T17:41:32.097Z,8.10
2019-03-17T17:44:02.334Z,7.90
2019-03-17T17:46:32.867Z,7.90
2019-03-17T17:49:03.103Z,8.00
2019-03-17T17:51:33.427Z,7.90
2019-03-17T17:54:03.766Z,7.90
2019-03-17T17:56:34.431Z,8.00
2019-03-17T17:59:04.773Z,7.90
2019-03-17T18:01:35.150Z,8.00
2019-03-17T18:04:05.425Z,8.00
2019-03-17T18:06:35.726Z,7.90
2019-03-17T18:09:08.326Z,7.90
2019-03-17T18:11:38.565Z,7.80
2019-03-17T18:14:09.171Z,7.80
2019-03-17T18:16:41.561Z,7.80
2019-03-17T18:19:11.492Z,7.70
2019-03-17T18:21:42.224Z,7.70
2019-03-17T18:24:12.554Z,7.80
2019-03-17T18:26:42.805Z,8.00
2019-03-17T18:29:13.119Z,7.90
2019-03-17T18:31:43.450Z,7.70
2019-03-17T18:34:13.690Z,7.70
2019-03-17T18:36:43.974Z,7.80
2019-03-17T18:44:13.963Z,7.70
2019-03-17T19:31:38.651Z,7.80
2019-03-17T19:34:08.921Z,7.60
2019-03-17T19:36:39.243Z,7.50
2019-03-17T19:39:09.486Z,7.50
2019-03-17T19:41:39.784Z,7.40
2019-03-17T19:44:10.158Z,7.40
2019-03-17T19:46:40.382Z,7.50
2019-03-17T19:49:10.751Z,7.40
2019-03-17T19:51:41.362Z,7.40
2019-03-17T19:54:11.839Z,7.30
2019-03-17T19:56:42.086Z,7.40
2019-03-17T19:59:12.415Z,7.20
2019-03-17T20:31:38.495Z,7.30
2019-03-17T20:34:08.770Z,7.10
2019-03-17T20:36:39.171Z,7.00
2019-03-17T20:39:09.555Z,7.20
2019-03-17T20:41:39.892Z,7.20
2019-03-17T20:44:10.279Z,7.20
2019-03-17T20:46:40.486Z,7.00
2019-03-17T20:49:10.861Z,7.00
2019-03-17T20:51:41.184Z,7.00
2019-03-17T20:54:11.528Z,7.00
2019-03-17T20:56:41.773Z,7.00
2019-03-17T20:59:12.089Z,7.00
2019-03-17T21:01:42.284Z,7.00
2019-03-17T21:04:12.522Z,7.00
2019-03-17T21:06:42.759Z,7.00
2019-03-17T21:09:13.021Z,7.00
2019-03-17T21:11:43.337Z,6.90
2019-03-17T21:14:14.207Z,6.80
2019-03-17T21:16:44.448Z,6.90
2019-03-17T21:19:14.960Z,6.90
2019-03-17T21:21:45.268Z,6.90
2019-03-17T21:24:15.514Z,6.80
2019-03-17T21:26:45.774Z,6.80
2019-03-17T21:29:16.143Z,6.80
2019-03-17T21:31:46.398Z,6.80
2019-03-17T21:34:16.758Z,6.70
2019-03-17T21:36:47.143Z,6.70
2019-03-17T21:39:18.040Z,6.70
2019-03-17T21:41:48.438Z,6.70
2019-03-17T21:44:18.834Z,6.70
2019-03-17T21:46:49.121Z,6.80
2019-03-17T21:49:19.651Z,6.70
2019-03-17T21:51:49.992Z,6.70
2019-03-17T21:54:20.215Z,6.80
2019-03-17T21:56:50.482Z,6.90
2019-03-17T21:59:20.849Z,6.70
2019-03-17T22:01:51.326Z,6.70
2019-03-17T22:04:21.567Z,6.60
2019-03-17T22:06:51.887Z,6.50
2019-03-17T22:09:22.297Z,6.50
2019-03-17T22:11:52.549Z,6.40
2019-03-17T22:14:22.850Z,6.40
2019-03-17T22:16:53.206Z,6.30
2019-03-17T22:19:23.506Z,6.40
2019-03-17T22:21:53.822Z,6.30
2019-03-17T22:24:24.119Z,6.40
2019-03-17T22:26:54.397Z,6.40
2019-03-17T22:29:24.698Z,6.30
2019-03-17T22:31:55.231Z,6.30
2019-03-17T22:34:25.810Z,6.30
2019-03-17T22:36:56.091Z,6.30
2019-03-17T22:39:26.343Z,6.30
2019-03-17T22:41:56.605Z,6.30
2019-03-17T22:44:28.073Z,6.30
2019-03-17T22:46:58.548Z,6.20
2019-03-17T22:49:28.771Z,6.20
2019-03-17T22:51:59.042Z,6.10
2019-03-17T22:54:29.399Z,6.20
2019-03-17T22:56:59.659Z,6.20
2019-03-17T22:59:29.882Z,6.10
2019-03-17T23:02:00.228Z,6.20
2019-03-17T23:04:30.439Z,6.20
2019-03-17T23:07:00.686Z,6.30
2019-03-17T23:09:31.192Z,6.30
2019-03-17T23:12:01.451Z,6.30
2019-03-17T23:14:36.596Z,6.20
2019-03-17T23:17:03.630Z,6.30
2019-03-17T23:19:33.854Z,6.30
2019-03-17T23:22:04.253Z,6.20
2019-03-17T23:24:34.498Z,6.30
2019-03-17T23:27:05.045Z,6.10
2019-03-17T23:29:35.366Z,6.10
2019-03-17T23:32:05.723Z,6.20
2019-03-17T23:34:36.047Z,6.20
2019-03-17T23:37:06.268Z,6.10
2019-03-17T23:39:36.643Z,6.10
2019-03-17T23:42:07.222Z,6.00
2019-03-17T23:44:48.440Z,6.10
2019-03-17T23:47:09.354Z,6.30
2019-03-17T23:49:39.738Z,5.90
2019-03-17T23:52:09.998Z,5.80
2019-03-17T23:54:40.258Z,6.00
2019-03-17T23:57:10.515Z,6.00
2019-03-17T23:59:40.757Z,5.70
